Weather reports worldwide

Advertisment
Hellin, Spain (8355): temperature & dewpoint: 20.09.2020 14:00:00 - 26.09.2020 14:00:00 (CEST)Hellin, Spain (8355): wind speed & gusts: 20.09.2020 14:00:00 - 26.09.2020 14:00:00 (CEST)Hellin, Spain (8355): wind direction: 20.09.2020 14:00:00 - 26.09.2020 14:00:00 (CEST)Hellin, Spain (8355): reduced air pressure: 20.09.2020 14:00:00 - 26.09.2020 14:00:00 (CEST)Hellin, Spain (8355): precipitation: 20.09.2020 14:00:00 - 26.09.2020 14:00:00 (CEST)
Date & Time tt [°C] td [°C] ff [km/h] ff [kn] fx [km/h] fx [kn] dd ppp [hPa] rr [mm]
26.09.2020 14:00:00 19,2 4,5 18 10 40 22 WSW 1022,7 -
26.09.2020 13:00:00 17,9 4,5 17 9 43 23 SW 1024,0 0,0
26.09.2020 12:00:00 16,5 3,6 23 12 38 20 SW 1024,7 0,0
26.09.2020 11:00:00 - - - - - - - - -
26.09.2020 10:00:00 - - - - - - - - -
26.09.2020 09:00:00 11,5 2,9 13 7 22 12 SW 1026,1 0,0
26.09.2020 08:00:00 10,7 2,1 12 6 22 12 SW 1026,2 -
26.09.2020 07:00:00 11,2 1,9 11 6 24 13 SW 1026,1 0,0
26.09.2020 06:00:00 12,1 1,7 14 8 30 16 SW 1025,9 0,0
26.09.2020 05:00:00 12,8 1,7 18 10 31 17 WSW 1025,7 0,0
26.09.2020 04:00:00 13,5 1,5 18 10 30 16 WSW 1025,8 0,0
26.09.2020 03:00:00 14,1 1,7 16 9 29 16 WSW 1026,3 0,0
26.09.2020 02:00:00 14,6 1,5 18 10 30 16 WSW 1026,5 -
26.09.2020 01:00:00 15,2 1,7 20 11 32 17 WSW 1026,7 0,0
26.09.2020 00:00:00 15,5 1,7 16 9 31 17 WSW 1026,8 0,0
25.09.2020 23:00:00 - - - - - - - - -
25.09.2020 22:00:00 - - - - - - - - -
25.09.2020 21:00:00 17,4 1,3 15 8 31 17 WSW 1025,5 0,0
25.09.2020 20:00:00 18,6 1,1 15 8 41 22 WSW 1024,0 -
25.09.2020 19:00:00 - - - - - - - - -
25.09.2020 18:00:00 - - - - - - - - -
25.09.2020 17:00:00 - - - - - - - - -
25.09.2020 16:00:00 - - - - - - - - -
25.09.2020 15:00:00 - - - - - - - - -
25.09.2020 14:00:00 19,9 8,3 22 12 44 24 SW 1023,2 -
25.09.2020 13:00:00 - - - - - - - - -
25.09.2020 12:00:00 - - - - - - - - -
25.09.2020 11:00:00 17,3 7,8 25 14 45 25 SW 1023,3 0,0
25.09.2020 10:00:00 17,2 8,7 19 11 36 19 W 1022,0 0,0
25.09.2020 09:00:00 - - - - - - - - -
25.09.2020 08:00:00 15,9 10,4 10 6 23 13 WSW 1020,9 -
25.09.2020 07:00:00 17,0 9,9 11 6 18 10 WSW 1020,4 0,0
25.09.2020 06:00:00 - - - - - - - - -
25.09.2020 05:00:00 17,1 10,9 7 4 12 7 SW 1020,3 0,0
25.09.2020 04:00:00 - - - - - - - - -
25.09.2020 03:00:00 - - - - - - - - -
25.09.2020 02:00:00 17,9 12,3 4 2 11 6 S 1021,2 -
25.09.2020 01:00:00 19,1 12,6 9 5 23 12 SSW 1021,0 0,0
25.09.2020 00:00:00 20,0 12,7 16 8 27 14 SSW 1020,4 0,0
24.09.2020 23:00:00 - - - - - - - - -
24.09.2020 22:00:00 - - - - - - - - -
24.09.2020 21:00:00 - - - - - - - - -
24.09.2020 20:00:00 22,5 11,2 11 6 26 14 SSE 1019,0 -
24.09.2020 19:00:00 - - - - - - - - -
24.09.2020 18:00:00 26,1 11,8 20 11 38 20 SE 1016,8 0,0
24.09.2020 17:00:00 24,1 10,8 16 8 45 24 ESE 1017,7 0,0
24.09.2020 16:00:00 - - - - - - - - -
24.09.2020 15:00:00 26,0 12,1 23 12 44 24 NNE 1017,8 0,0
24.09.2020 14:00:00 25,6 14,4 4 2 13 7 WSW 1018,2 -
24.09.2020 13:00:00 23,6 14,0 7 4 16 9 NW 1019,1 0,0
24.09.2020 12:00:00 22,1 14,2 7 4 16 8 NNW 1020,2 0,0
24.09.2020 11:00:00 21,2 14,1 8 4 23 13 N 1020,1 0,0
24.09.2020 10:00:00 20,4 13,9 10 5 25 13 ENE 1020,2 0,0
24.09.2020 09:00:00 19,4 14,0 16 9 26 14 ENE 1020,3 0,0
24.09.2020 08:00:00 17,2 13,0 8 4 16 8 NNE 1020,2 -
24.09.2020 07:00:00 17,6 12,3 5 3 16 9 ENE 1020,0 0,0
24.09.2020 06:00:00 - - - - - - - - -
24.09.2020 05:00:00 18,6 11,9 8 4 16 8 E 1019,8 0,0
24.09.2020 04:00:00 - - - - - - - - -
24.09.2020 03:00:00 19,3 10,3 3 1 12 7 E 1020,1 0,0
24.09.2020 02:00:00 20,1 10,8 8 4 17 9 ENE 1019,9 -
24.09.2020 01:00:00 20,6 10,4 9 5 19 10 E 1019,9 0,0
24.09.2020 00:00:00 - - - - - - - - -
23.09.2020 23:00:00 - - - - - - - - -
23.09.2020 22:00:00 - - - - - - - - -
23.09.2020 21:00:00 23,0 9,4 11 6 23 12 NNE 1017,3 0,0
23.09.2020 20:00:00 24,5 8,8 9 5 20 11 N 1016,1 -
23.09.2020 19:00:00 26,1 8,5 13 7 30 16 NNE 1015,2 0,0
23.09.2020 18:00:00 28,1 9,4 18 10 35 19 N 1014,4 0,0
23.09.2020 17:00:00 27,1 8,9 20 11 35 19 N 1014,6 0,0
23.09.2020 16:00:00 28,3 9,6 13 7 26 14 NNW 1014,3 0,0
23.09.2020 15:00:00 28,2 10,9 6 3 16 9 WNW 1014,8 0,0
23.09.2020 14:00:00 25,5 11,2 6 4 14 8 WNW 1016,6 -
23.09.2020 13:00:00 25,2 11,3 3 2 14 8 W 1017,2 0,0
23.09.2020 12:00:00 24,5 12,7 6 3 13 7 NNW 1017,7 0,0
23.09.2020 11:00:00 21,9 12,2 4 2 15 8 NW 1018,6 0,0
23.09.2020 10:00:00 - - - - - - - - -
23.09.2020 09:00:00 18,2 11,0 4 2 9 5 NW 1019,3 0,0
23.09.2020 08:00:00 18,1 9,9 3 2 7 4 ENE 1019,0 -
23.09.2020 07:00:00 17,5 9,4 2 1 6 4 E 1019,0 0,0
23.09.2020 06:00:00 17,9 9,3 0 0 8 5 N 1018,9 0,0
23.09.2020 05:00:00 - - - - - - - - -
23.09.2020 04:00:00 19,0 9,4 0 0 4 2 N 1019,1 0,0
23.09.2020 03:00:00 - - - - - - - - -
23.09.2020 02:00:00 20,3 9,2 5 3 13 7 ENE 1019,1 -
23.09.2020 01:00:00 - - - - - - - - -
23.09.2020 00:00:00 19,9 11,1 1 1 10 6 ESE 1019,3 0,0
22.09.2020 23:00:00 20,6 11,0 2 1 7 4 ESE 1018,8 0,0
22.09.2020 22:00:00 21,8 10,6 0 0 6 3 N 1018,1 0,0
22.09.2020 21:00:00 23,3 9,7 0 0 11 6 W 1016,9 0,0
22.09.2020 20:00:00 25,0 8,9 7 4 18 10 W 1015,9 -
22.09.2020 19:00:00 - - - - - - - - -
22.09.2020 18:00:00 28,1 8,9 1 0 10 6 ENE 1014,9 0,0
22.09.2020 17:00:00 - - - - - - - - -
22.09.2020 16:00:00 26,0 8,9 9 5 17 9 SE 1016,6 0,0
22.09.2020 15:00:00 26,1 9,4 3 2 16 9 NNE 1017,4 0,0
22.09.2020 14:00:00 26,0 9,8 4 2 13 7 SSW 1018,2 -
22.09.2020 13:00:00 24,8 9,9 2 1 12 7 W 1019,1 0,0
22.09.2020 12:00:00 23,6 9,9 1 0 10 5 S 1020,0 0,0
22.09.2020 11:00:00 21,6 9,4 4 2 11 6 E 1020,5 0,0
22.09.2020 10:00:00 - - - - - - - - -
22.09.2020 09:00:00 16,3 8,8 5 3 9 5 ESE 1021,4 0,0
22.09.2020 08:00:00 15,4 8,0 2 1 10 6 SSE 1021,2 -
22.09.2020 07:00:00 16,2 8,1 7 4 14 8 E 1020,8 0,0
22.09.2020 06:00:00 16,6 8,5 7 4 11 6 NNE 1021,3 0,0
22.09.2020 05:00:00 - - - - - - - - -
22.09.2020 04:00:00 - - - - - - - - -
22.09.2020 03:00:00 16,6 9,0 4 2 9 5 ENE 1021,8 0,0
22.09.2020 02:00:00 17,5 8,9 6 3 11 6 E 1021,8 -
22.09.2020 01:00:00 17,9 9,3 3 2 8 5 E 1022,1 0,0
22.09.2020 00:00:00 18,5 9,0 1 1 9 5 SW 1021,9 0,0
21.09.2020 23:00:00 19,4 8,4 4 2 7 4 E 1021,7 0,0
21.09.2020 22:00:00 21,1 7,3 4 2 9 5 SE 1021,0 0,0
21.09.2020 21:00:00 22,3 6,8 6 3 14 8 E 1020,2 0,0
21.09.2020 20:00:00 23,8 7,0 6 4 15 8 E 1019,1 -
21.09.2020 19:00:00 24,9 7,6 9 5 24 13 E 1018,5 0,0
21.09.2020 18:00:00 26,1 8,5 9 5 16 9 E 1018,3 0,0
21.09.2020 17:00:00 26,0 8,5 6 3 22 12 E 1018,7 0,0
21.09.2020 16:00:00 25,9 9,3 8 5 22 12 E 1019,0 0,0
21.09.2020 15:00:00 24,8 8,7 9 5 26 14 ESE 1019,9 0,0
21.09.2020 14:00:00 25,2 10,3 12 6 24 13 ENE 1020,4 -
21.09.2020 13:00:00 - - - - - - - - -
21.09.2020 12:00:00 21,7 13,1 4 2 15 8 ENE 1022,0 0,0
21.09.2020 11:00:00 - - - - - - - - -
21.09.2020 10:00:00 18,4 13,5 0 0 11 6 E 1022,9 0,0
21.09.2020 09:00:00 16,3 12,8 5 3 10 5 E 1023,4 0,0
21.09.2020 08:00:00 14,9 12,2 3 1 10 5 N 1023,2 -
21.09.2020 07:00:00 15,0 11,6 6 3 12 6 E 1023,0 0,0
21.09.2020 06:00:00 15,5 11,4 8 4 14 7 ENE 1023,1 0,0
21.09.2020 05:00:00 16,1 11,0 6 4 10 5 ESE 1023,0 0,0
21.09.2020 04:00:00 16,7 11,0 5 3 9 5 ESE 1022,9 0,0
21.09.2020 03:00:00 17,1 10,6 5 3 14 7 E 1023,1 0,0
21.09.2020 02:00:00 18,1 10,4 6 4 12 7 NE 1023,1 -
21.09.2020 01:00:00 18,2 10,3 4 2 11 6 ENE 1023,3 0,0
21.09.2020 00:00:00 - - - - - - - - -
20.09.2020 23:00:00 - - - - - - - - -
20.09.2020 22:00:00 20,3 10,4 12 7 21 11 ENE 1022,3 0,0
20.09.2020 21:00:00 21,1 9,3 10 6 16 9 ENE 1021,5 0,0
20.09.2020 20:00:00 22,9 9,3 10 5 23 12 ENE 1019,9 -
20.09.2020 19:00:00 25,0 9,7 11 6 26 14 NNE 1019,1 0,0
20.09.2020 18:00:00 25,5 10,5 14 8 25 13 ENE 1018,7 0,0
20.09.2020 17:00:00 - - - - - - - - -
20.09.2020 16:00:00 - - - - - - - - -
20.09.2020 15:00:00 23,5 10,5 13 7 22 12 E 1021,0 0,0
20.09.2020 14:00:00 22,9 11,6 9 5 19 11 ENE 1021,6 -

tt = temperature
td = dewpoint
ff = wind speed
fx = gusts
dd = wind direction
ppp = reduced air pressure
rr = precipitation

Next stations